sensor_id;sensor_type;location;lat;lon;timestamp;P1;durP1;ratioP1;P2;durP2;ratioP2
79790;SDS011;69278;52.220;5.172;2023-06-24T00:02:22;7.47;;;5.22;;
79790;SDS011;69278;52.220;5.172;2023-06-24T00:04:50;8.30;;;5.25;;
79790;SDS011;69278;52.220;5.172;2023-06-24T00:07:18;9.20;;;5.60;;
79790;SDS011;69278;52.220;5.172;2023-06-24T00:09:48;8.77;;;5.47;;
79790;SDS011;69278;52.220;5.172;2023-06-24T00:12:15;7.07;;;5.28;;
79790;SDS011;69278;52.220;5.172;2023-06-24T00:14:48;7.80;;;5.60;;
79790;SDS011;69278;52.220;5.172;2023-06-24T00:17:16;7.57;;;5.40;;
79790;SDS011;69278;52.220;5.172;2023-06-24T00:19:43;8.35;;;5.82;;
79790;SDS011;69278;52.220;5.172;2023-06-24T00:22:13;7.70;;;5.50;;
79790;SDS011;69278;52.220;5.172;2023-06-24T00:24:41;8.32;;;5.72;;
79790;SDS011;69278;52.220;5.172;2023-06-24T00:27:09;9.20;;;5.72;;
79790;SDS011;69278;52.220;5.172;2023-06-24T00:29:35;8.68;;;5.40;;
79790;SDS011;69278;52.220;5.172;2023-06-24T00:32:02;7.43;;;5.80;;
79790;SDS011;69278;52.220;5.172;2023-06-24T00:34:29;8.07;;;5.87;;
79790;SDS011;69278;52.220;5.172;2023-06-24T00:36:55;9.25;;;5.95;;
79790;SDS011;69278;52.220;5.172;2023-06-24T00:39:22;8.80;;;6.15;;
79790;SDS011;69278;52.220;5.172;2023-06-24T00:41:49;10.13;;;6.05;;
79790;SDS011;69278;52.220;5.172;2023-06-24T00:44:16;7.85;;;5.80;;
79790;SDS011;69278;52.220;5.172;2023-06-24T00:46:43;8.90;;;6.30;;
79790;SDS011;69278;52.220;5.172;2023-06-24T00:49:10;9.10;;;6.25;;
79790;SDS011;69278;52.220;5.172;2023-06-24T00:51:40;9.60;;;6.22;;
79790;SDS011;69278;52.220;5.172;2023-06-24T00:54:17;8.70;;;6.00;;
79790;SDS011;69278;52.220;5.172;2023-06-24T00:56:44;9.23;;;5.97;;
79790;SDS011;69278;52.220;5.172;2023-06-24T00:59:12;9.03;;;5.90;;
79790;SDS011;69278;52.220;5.172;2023-06-24T01:01:41;10.10;;;5.75;;
79790;SDS011;69278;52.220;5.172;2023-06-24T01:04:07;8.70;;;5.88;;
79790;SDS011;69278;52.220;5.172;2023-06-24T01:06:35;9.52;;;6.13;;
79790;SDS011;69278;52.220;5.172;2023-06-24T01:09:02;9.15;;;5.72;;
79790;SDS011;69278;52.220;5.172;2023-06-24T01:11:31;8.37;;;5.40;;
79790;SDS011;69278;52.220;5.172;2023-06-24T01:13:58;8.15;;;5.70;;
79790;SDS011;69278;52.220;5.172;2023-06-24T01:19:03;7.82;;;5.22;;
79790;SDS011;69278;52.220;5.172;2023-06-24T01:21:55;8.00;;;5.03;;
79790;SDS011;69278;52.220;5.172;2023-06-24T01:24:53;6.50;;;4.63;;
79790;SDS011;69278;52.220;5.172;2023-06-24T01:27:32;6.95;;;4.60;;
79790;SDS011;69278;52.220;5.172;2023-06-24T01:30:20;6.88;;;4.70;;
79790;SDS011;69278;52.220;5.172;2023-06-24T01:32:50;6.80;;;5.07;;
79790;SDS011;69278;52.220;5.172;2023-06-24T01:35:23;6.40;;;4.70;;
79790;SDS011;69278;52.220;5.172;2023-06-24T01:37:54;6.90;;;4.77;;
79790;SDS011;69278;52.220;5.172;2023-06-24T01:40:25;6.93;;;4.50;;
79790;SDS011;69278;52.220;5.172;2023-06-24T01:42:55;7.57;;;4.47;;
79790;SDS011;69278;52.220;5.172;2023-06-24T01:45:28;6.55;;;4.53;;
79790;SDS011;69278;52.220;5.172;2023-06-24T01:50:50;7.47;;;4.57;;
79790;SDS011;69278;52.220;5.172;2023-06-24T01:53:42;6.43;;;4.10;;
79790;SDS011;69278;52.220;5.172;2023-06-24T01:56:14;8.00;;;4.25;;
79790;SDS011;69278;52.220;5.172;2023-06-24T01:58:41;6.40;;;4.00;;
79790;SDS011;69278;52.220;5.172;2023-06-24T02:01:09;6.07;;;4.10;;
79790;SDS011;69278;52.220;5.172;2023-06-24T02:03:38;6.27;;;3.90;;
79790;SDS011;69278;52.220;5.172;2023-06-24T02:06:07;7.05;;;4.10;;
79790;SDS011;69278;52.220;5.172;2023-06-24T02:08:38;5.93;;;4.00;;
79790;SDS011;69278;52.220;5.172;2023-06-24T02:11:07;5.63;;;3.67;;
79790;SDS011;69278;52.220;5.172;2023-06-24T02:13:35;6.60;;;4.07;;
79790;SDS011;69278;52.220;5.172;2023-06-24T02:16:06;8.60;;;4.27;;
79790;SDS011;69278;52.220;5.172;2023-06-24T02:18:34;5.68;;;3.90;;
79790;SDS011;69278;52.220;5.172;2023-06-24T02:21:03;7.85;;;3.80;;
79790;SDS011;69278;52.220;5.172;2023-06-24T02:23:31;5.68;;;3.80;;
79790;SDS011;69278;52.220;5.172;2023-06-24T02:26:00;5.63;;;3.83;;
79790;SDS011;69278;52.220;5.172;2023-06-24T02:28:28;6.27;;;3.60;;
79790;SDS011;69278;52.220;5.172;2023-06-24T02:30:56;5.28;;;3.60;;
79790;SDS011;69278;52.220;5.172;2023-06-24T02:33:24;5.65;;;3.85;;
79790;SDS011;69278;52.220;5.172;2023-06-24T02:35:52;5.95;;;3.67;;
79790;SDS011;69278;52.220;5.172;2023-06-24T02:38:19;6.55;;;3.83;;
79790;SDS011;69278;52.220;5.172;2023-06-24T02:40:46;5.93;;;3.67;;
79790;SDS011;69278;52.220;5.172;2023-06-24T02:43:13;6.32;;;3.80;;
79790;SDS011;69278;52.220;5.172;2023-06-24T02:45:39;5.93;;;3.88;;
79790;SDS011;69278;52.220;5.172;2023-06-24T02:48:08;7.55;;;3.70;;
79790;SDS011;69278;52.220;5.172;2023-06-24T02:50:36;5.18;;;3.55;;
79790;SDS011;69278;52.220;5.172;2023-06-24T02:53:04;5.53;;;3.57;;
79790;SDS011;69278;52.220;5.172;2023-06-24T02:55:30;5.93;;;3.40;;
79790;SDS011;69278;52.220;5.172;2023-06-24T02:58:00;5.07;;;3.50;;
79790;SDS011;69278;52.220;5.172;2023-06-24T03:00:28;5.05;;;3.70;;
79790;SDS011;69278;52.220;5.172;2023-06-24T03:02:55;5.07;;;3.50;;
79790;SDS011;69278;52.220;5.172;2023-06-24T03:05:22;6.73;;;3.60;;
79790;SDS011;69278;52.220;5.172;2023-06-24T03:07:52;4.93;;;3.47;;
79790;SDS011;69278;52.220;5.172;2023-06-24T03:10:19;5.25;;;3.70;;
79790;SDS011;69278;52.220;5.172;2023-06-24T03:12:46;6.07;;;3.60;;
79790;SDS011;69278;52.220;5.172;2023-06-24T03:15:13;4.55;;;3.25;;
79790;SDS011;69278;52.220;5.172;2023-06-24T03:17:40;5.30;;;3.50;;
79790;SDS011;69278;52.220;5.172;2023-06-24T03:20:06;6.95;;;3.70;;
79790;SDS011;69278;52.220;5.172;2023-06-24T03:22:34;5.32;;;3.30;;
79790;SDS011;69278;52.220;5.172;2023-06-24T03:25:01;5.38;;;3.60;;
79790;SDS011;69278;52.220;5.172;2023-06-24T03:27:28;6.07;;;3.50;;
79790;SDS011;69278;52.220;5.172;2023-06-24T03:29:54;7.00;;;3.50;;
79790;SDS011;69278;52.220;5.172;2023-06-24T03:32:21;5.32;;;3.55;;
79790;SDS011;69278;52.220;5.172;2023-06-24T03:34:48;5.97;;;3.40;;
79790;SDS011;69278;52.220;5.172;2023-06-24T03:37:14;5.70;;;3.65;;
79790;SDS011;69278;52.220;5.172;2023-06-24T03:39:42;6.25;;;3.50;;
79790;SDS011;69278;52.220;5.172;2023-06-24T03:42:08;6.53;;;3.47;;
79790;SDS011;69278;52.220;5.172;2023-06-24T03:44:35;5.32;;;3.20;;
79790;SDS011;69278;52.220;5.172;2023-06-24T03:47:01;5.22;;;3.33;;
79790;SDS011;69278;52.220;5.172;2023-06-24T03:49:28;4.95;;;3.50;;
79790;SDS011;69278;52.220;5.172;2023-06-24T03:51:54;5.43;;;3.67;;
79790;SDS011;69278;52.220;5.172;2023-06-24T03:54:21;6.57;;;3.70;;
79790;SDS011;69278;52.220;5.172;2023-06-24T03:56:47;5.07;;;3.53;;
79790;SDS011;69278;52.220;5.172;2023-06-24T03:59:14;5.40;;;3.70;;
79790;SDS011;69278;52.220;5.172;2023-06-24T04:01:40;5.35;;;3.67;;
79790;SDS011;69278;52.220;5.172;2023-06-24T04:04:07;5.57;;;3.60;;
79790;SDS011;69278;52.220;5.172;2023-06-24T04:06:33;5.93;;;3.67;;
79790;SDS011;69278;52.220;5.172;2023-06-24T04:09:00;5.07;;;3.55;;
79790;SDS011;69278;52.220;5.172;2023-06-24T04:11:27;5.25;;;3.88;;
79790;SDS011;69278;52.220;5.172;2023-06-24T04:13:54;6.43;;;3.92;;
79790;SDS011;69278;52.220;5.172;2023-06-24T04:16:20;6.93;;;4.25;;
79790;SDS011;69278;52.220;5.172;2023-06-24T04:18:47;7.40;;;4.23;;
79790;SDS011;69278;52.220;5.172;2023-06-24T04:21:14;7.97;;;5.05;;
79790;SDS011;69278;52.220;5.172;2023-06-24T04:23:40;10.93;;;7.18;;
79790;SDS011;69278;52.220;5.172;2023-06-24T04:26:07;10.77;;;6.72;;
79790;SDS011;69278;52.220;5.172;2023-06-24T04:28:34;9.73;;;5.63;;
79790;SDS011;69278;52.220;5.172;2023-06-24T04:31:00;8.37;;;5.33;;
79790;SDS011;69278;52.220;5.172;2023-06-24T04:33:27;9.40;;;5.82;;
79790;SDS011;69278;52.220;5.172;2023-06-24T04:35:53;9.85;;;5.85;;
79790;SDS011;69278;52.220;5.172;2023-06-24T04:38:23;9.68;;;5.30;;
79790;SDS011;69278;52.220;5.172;2023-06-24T04:40:49;8.43;;;5.50;;
79790;SDS011;69278;52.220;5.172;2023-06-24T04:43:16;9.17;;;5.00;;
79790;SDS011;69278;52.220;5.172;2023-06-24T04:45:42;8.13;;;5.05;;
79790;SDS011;69278;52.220;5.172;2023-06-24T04:48:09;7.15;;;4.32;;
79790;SDS011;69278;52.220;5.172;2023-06-24T04:50:35;7.88;;;5.00;;
79790;SDS011;69278;52.220;5.172;2023-06-24T04:53:02;8.05;;;5.10;;
79790;SDS011;69278;52.220;5.172;2023-06-24T04:55:28;9.27;;;5.07;;
79790;SDS011;69278;52.220;5.172;2023-06-24T04:57:59;9.25;;;5.80;;
79790;SDS011;69278;52.220;5.172;2023-06-24T05:00:25;8.38;;;5.70;;
79790;SDS011;69278;52.220;5.172;2023-06-24T05:02:52;10.13;;;5.63;;
79790;SDS011;69278;52.220;5.172;2023-06-24T05:05:18;9.60;;;5.63;;
79790;SDS011;69278;52.220;5.172;2023-06-24T05:07:47;9.87;;;5.53;;
79790;SDS011;69278;52.220;5.172;2023-06-24T05:10:13;8.50;;;5.50;;
79790;SDS011;69278;52.220;5.172;2023-06-24T05:12:40;8.93;;;5.68;;
79790;SDS011;69278;52.220;5.172;2023-06-24T05:15:07;9.52;;;5.50;;
79790;SDS011;69278;52.220;5.172;2023-06-24T05:17:34;8.40;;;5.18;;
79790;SDS011;69278;52.220;5.172;2023-06-24T05:20:00;7.83;;;4.93;;
79790;SDS011;69278;52.220;5.172;2023-06-24T05:22:27;8.05;;;5.00;;
79790;SDS011;69278;52.220;5.172;2023-06-24T05:24:53;8.88;;;5.10;;
79790;SDS011;69278;52.220;5.172;2023-06-24T05:27:20;7.40;;;4.50;;
79790;SDS011;69278;52.220;5.172;2023-06-24T05:29:47;9.13;;;4.50;;
79790;SDS011;69278;52.220;5.172;2023-06-24T05:32:13;12.20;;;5.23;;
79790;SDS011;69278;52.220;5.172;2023-06-24T05:34:40;7.63;;;3.85;;
79790;SDS011;69278;52.220;5.172;2023-06-24T05:37:07;7.97;;;3.85;;
79790;SDS011;69278;52.220;5.172;2023-06-24T05:39:33;6.78;;;3.88;;
79790;SDS011;69278;52.220;5.172;2023-06-24T05:42:00;6.78;;;3.65;;
79790;SDS011;69278;52.220;5.172;2023-06-24T05:44:26;7.03;;;4.10;;
79790;SDS011;69278;52.220;5.172;2023-06-24T05:46:53;8.32;;;4.00;;
79790;SDS011;69278;52.220;5.172;2023-06-24T05:49:19;7.63;;;4.22;;
79790;SDS011;69278;52.220;5.172;2023-06-24T05:51:46;6.40;;;3.60;;
79790;SDS011;69278;52.220;5.172;2023-06-24T05:54:12;5.80;;;3.53;;
79790;SDS011;69278;52.220;5.172;2023-06-24T05:56:39;6.47;;;3.50;;
79790;SDS011;69278;52.220;5.172;2023-06-24T05:59:05;7.63;;;3.97;;
79790;SDS011;69278;52.220;5.172;2023-06-24T06:01:32;6.20;;;3.63;;
79790;SDS011;69278;52.220;5.172;2023-06-24T06:03:59;7.03;;;4.18;;
79790;SDS011;69278;52.220;5.172;2023-06-24T06:06:25;7.03;;;4.43;;
79790;SDS011;69278;52.220;5.172;2023-06-24T06:08:52;7.27;;;4.00;;
79790;SDS011;69278;52.220;5.172;2023-06-24T06:11:18;7.20;;;3.90;;
79790;SDS011;69278;52.220;5.172;2023-06-24T06:13:45;7.82;;;3.70;;
79790;SDS011;69278;52.220;5.172;2023-06-24T06:16:11;7.20;;;3.72;;
79790;SDS011;69278;52.220;5.172;2023-06-24T06:18:38;7.40;;;4.40;;
79790;SDS011;69278;52.220;5.172;2023-06-24T06:21:04;5.33;;;3.47;;
79790;SDS011;69278;52.220;5.172;2023-06-24T06:23:31;7.43;;;3.58;;
79790;SDS011;69278;52.220;5.172;2023-06-24T06:25:58;6.97;;;3.33;;
79790;SDS011;69278;52.220;5.172;2023-06-24T06:28:24;5.93;;;3.53;;
79790;SDS011;69278;52.220;5.172;2023-06-24T06:30:50;5.47;;;3.55;;
79790;SDS011;69278;52.220;5.172;2023-06-24T06:33:17;7.83;;;4.00;;
79790;SDS011;69278;52.220;5.172;2023-06-24T06:35:44;5.90;;;3.85;;
79790;SDS011;69278;52.220;5.172;2023-06-24T06:38:11;6.78;;;4.20;;
79790;SDS011;69278;52.220;5.172;2023-06-24T06:40:37;6.15;;;3.47;;
79790;SDS011;69278;52.220;5.172;2023-06-24T06:43:04;7.45;;;3.50;;
79790;SDS011;69278;52.220;5.172;2023-06-24T06:45:31;10.00;;;4.73;;
79790;SDS011;69278;52.220;5.172;2023-06-24T06:47:58;9.75;;;3.97;;
79790;SDS011;69278;52.220;5.172;2023-06-24T06:50:24;7.80;;;4.03;;
79790;SDS011;69278;52.220;5.172;2023-06-24T06:52:51;6.43;;;3.63;;
79790;SDS011;69278;52.220;5.172;2023-06-24T06:55:17;6.85;;;3.75;;
79790;SDS011;69278;52.220;5.172;2023-06-24T06:57:44;6.23;;;4.03;;
79790;SDS011;69278;52.220;5.172;2023-06-24T07:00:10;7.22;;;3.88;;
79790;SDS011;69278;52.220;5.172;2023-06-24T07:02:37;6.28;;;3.53;;
79790;SDS011;69278;52.220;5.172;2023-06-24T07:05:04;7.35;;;3.83;;
79790;SDS011;69278;52.220;5.172;2023-06-24T07:07:31;8.55;;;4.03;;
79790;SDS011;69278;52.220;5.172;2023-06-24T07:09:58;7.10;;;3.20;;
79790;SDS011;69278;52.220;5.172;2023-06-24T07:12:25;9.57;;;4.18;;
79790;SDS011;69278;52.220;5.172;2023-06-24T07:14:51;8.60;;;4.18;;
79790;SDS011;69278;52.220;5.172;2023-06-24T07:17:18;7.07;;;3.13;;
79790;SDS011;69278;52.220;5.172;2023-06-24T07:19:44;7.50;;;3.50;;
79790;SDS011;69278;52.220;5.172;2023-06-24T07:22:11;9.43;;;4.10;;
79790;SDS011;69278;52.220;5.172;2023-06-24T07:24:37;7.90;;;3.80;;
79790;SDS011;69278;52.220;5.172;2023-06-24T07:27:04;7.40;;;3.78;;
79790;SDS011;69278;52.220;5.172;2023-06-24T07:29:31;6.30;;;3.78;;
79790;SDS011;69278;52.220;5.172;2023-06-24T07:31:57;6.03;;;3.60;;
79790;SDS011;69278;52.220;5.172;2023-06-24T07:34:24;6.23;;;4.17;;
79790;SDS011;69278;52.220;5.172;2023-06-24T07:36:50;7.45;;;3.60;;
79790;SDS011;69278;52.220;5.172;2023-06-24T07:39:17;6.80;;;3.80;;
79790;SDS011;69278;52.220;5.172;2023-06-24T07:41:43;6.72;;;3.88;;
79790;SDS011;69278;52.220;5.172;2023-06-24T07:44:10;8.13;;;4.40;;
79790;SDS011;69278;52.220;5.172;2023-06-24T07:46:36;6.90;;;3.80;;
79790;SDS011;69278;52.220;5.172;2023-06-24T07:49:03;7.13;;;4.10;;
79790;SDS011;69278;52.220;5.172;2023-06-24T07:51:30;6.47;;;3.90;;
79790;SDS011;69278;52.220;5.172;2023-06-24T07:53:56;8.80;;;4.13;;
79790;SDS011;69278;52.220;5.172;2023-06-24T07:56:23;9.48;;;4.60;;
79790;SDS011;69278;52.220;5.172;2023-06-24T07:58:49;10.13;;;4.43;;
79790;SDS011;69278;52.220;5.172;2023-06-24T08:01:15;8.35;;;4.40;;
79790;SDS011;69278;52.220;5.172;2023-06-24T08:03:42;7.78;;;4.22;;
79790;SDS011;69278;52.220;5.172;2023-06-24T08:06:09;6.88;;;4.07;;
79790;SDS011;69278;52.220;5.172;2023-06-24T08:08:35;7.40;;;4.10;;
79790;SDS011;69278;52.220;5.172;2023-06-24T08:11:05;6.63;;;4.07;;
79790;SDS011;69278;52.220;5.172;2023-06-24T08:13:32;7.43;;;4.10;;
79790;SDS011;69278;52.220;5.172;2023-06-24T08:15:58;7.03;;;4.05;;
79790;SDS011;69278;52.220;5.172;2023-06-24T08:18:25;7.80;;;4.47;;
79790;SDS011;69278;52.220;5.172;2023-06-24T08:20:52;6.43;;;3.35;;
79790;SDS011;69278;52.220;5.172;2023-06-24T08:23:18;9.57;;;4.47;;
79790;SDS011;69278;52.220;5.172;2023-06-24T08:25:45;8.95;;;4.25;;
79790;SDS011;69278;52.220;5.172;2023-06-24T08:28:11;7.18;;;4.68;;
79790;SDS011;69278;52.220;5.172;2023-06-24T08:30:38;10.07;;;4.70;;
79790;SDS011;69278;52.220;5.172;2023-06-24T08:33:04;7.38;;;4.40;;
79790;SDS011;69278;52.220;5.172;2023-06-24T08:35:31;7.30;;;4.70;;
79790;SDS011;69278;52.220;5.172;2023-06-24T08:37:57;7.68;;;4.93;;
79790;SDS011;69278;52.220;5.172;2023-06-24T08:40:24;7.47;;;4.40;;
79790;SDS011;69278;52.220;5.172;2023-06-24T08:42:50;8.00;;;4.75;;
79790;SDS011;69278;52.220;5.172;2023-06-24T08:45:17;8.18;;;4.80;;
79790;SDS011;69278;52.220;5.172;2023-06-24T08:47:43;9.60;;;4.50;;
79790;SDS011;69278;52.220;5.172;2023-06-24T08:50:12;7.63;;;4.20;;
79790;SDS011;69278;52.220;5.172;2023-06-24T08:52:42;7.97;;;4.78;;
79790;SDS011;69278;52.220;5.172;2023-06-24T08:55:16;8.07;;;4.53;;
79790;SDS011;69278;52.220;5.172;2023-06-24T08:57:43;7.55;;;4.50;;
79790;SDS011;69278;52.220;5.172;2023-06-24T09:00:09;8.40;;;4.67;;
79790;SDS011;69278;52.220;5.172;2023-06-24T09:02:37;7.43;;;4.35;;
79790;SDS011;69278;52.220;5.172;2023-06-24T09:05:05;7.47;;;3.28;;
79790;SDS011;69278;52.220;5.172;2023-06-24T09:07:33;8.52;;;4.43;;
79790;SDS011;69278;52.220;5.172;2023-06-24T09:10:00;8.63;;;5.30;;
79790;SDS011;69278;52.220;5.172;2023-06-24T09:12:27;8.70;;;4.40;;
79790;SDS011;69278;52.220;5.172;2023-06-24T09:14:57;6.60;;;4.18;;
79790;SDS011;69278;52.220;5.172;2023-06-24T09:17:23;8.05;;;4.38;;
79790;SDS011;69278;52.220;5.172;2023-06-24T09:19:50;8.25;;;4.40;;
79790;SDS011;69278;52.220;5.172;2023-06-24T09:22:17;6.10;;;3.53;;
79790;SDS011;69278;52.220;5.172;2023-06-24T09:24:45;7.53;;;4.13;;
79790;SDS011;69278;52.220;5.172;2023-06-24T09:27:13;7.05;;;4.28;;
79790;SDS011;69278;52.220;5.172;2023-06-24T09:29:41;7.88;;;5.00;;
79790;SDS011;69278;52.220;5.172;2023-06-24T09:32:09;6.68;;;4.35;;
79790;SDS011;69278;52.220;5.172;2023-06-24T09:34:36;9.00;;;4.38;;
79790;SDS011;69278;52.220;5.172;2023-06-24T09:37:02;7.47;;;4.87;;
79790;SDS011;69278;52.220;5.172;2023-06-24T09:39:36;9.88;;;4.90;;
79790;SDS011;69278;52.220;5.172;2023-06-24T09:42:04;11.73;;;5.03;;
79790;SDS011;69278;52.220;5.172;2023-06-24T09:44:32;7.85;;;4.57;;
79790;SDS011;69278;52.220;5.172;2023-06-24T09:46:59;10.57;;;5.38;;
79790;SDS011;69278;52.220;5.172;2023-06-24T09:49:26;7.50;;;4.80;;
79790;SDS011;69278;52.220;5.172;2023-06-24T09:51:56;9.60;;;5.00;;
79790;SDS011;69278;52.220;5.172;2023-06-24T09:54:27;10.32;;;5.05;;
79790;SDS011;69278;52.220;5.172;2023-06-24T09:57:00;7.00;;;4.75;;
79790;SDS011;69278;52.220;5.172;2023-06-24T09:59:28;9.85;;;5.22;;
79790;SDS011;69278;52.220;5.172;2023-06-24T10:01:56;7.53;;;4.53;;
79790;SDS011;69278;52.220;5.172;2023-06-24T10:04:24;8.63;;;4.90;;
79790;SDS011;69278;52.220;5.172;2023-06-24T10:06:53;8.88;;;5.05;;
79790;SDS011;69278;52.220;5.172;2023-06-24T10:09:21;12.48;;;4.80;;
79790;SDS011;69278;52.220;5.172;2023-06-24T10:11:47;11.25;;;5.50;;
79790;SDS011;69278;52.220;5.172;2023-06-24T10:14:14;8.60;;;5.30;;
79790;SDS011;69278;52.220;5.172;2023-06-24T10:16:42;8.82;;;5.45;;
79790;SDS011;69278;52.220;5.172;2023-06-24T10:19:09;9.95;;;5.28;;
79790;SDS011;69278;52.220;5.172;2023-06-24T10:24:12;9.13;;;5.43;;
79790;SDS011;69278;52.220;5.172;2023-06-24T10:26:39;9.13;;;5.70;;
79790;SDS011;69278;52.220;5.172;2023-06-24T10:36:55;8.82;;;5.25;;
79790;SDS011;69278;52.220;5.172;2023-06-24T10:39:49;6.70;;;4.57;;
79790;SDS011;69278;52.220;5.172;2023-06-24T10:42:39;10.70;;;5.90;;
79790;SDS011;69278;52.220;5.172;2023-06-24T10:47:37;9.55;;;5.32;;
79790;SDS011;69278;52.220;5.172;2023-06-24T10:50:06;8.48;;;5.80;;
79790;SDS011;69278;52.220;5.172;2023-06-24T10:52:37;9.93;;;5.20;;
79790;SDS011;69278;52.220;5.172;2023-06-24T10:55:05;11.60;;;5.72;;
79790;SDS011;69278;52.220;5.172;2023-06-24T10:57:33;9.05;;;5.18;;
79790;SDS011;69278;52.220;5.172;2023-06-24T11:00:00;8.57;;;5.47;;
79790;SDS011;69278;52.220;5.172;2023-06-24T11:02:29;10.20;;;4.72;;
79790;SDS011;69278;52.220;5.172;2023-06-24T11:04:56;8.60;;;4.67;;
79790;SDS011;69278;52.220;5.172;2023-06-24T11:07:25;7.35;;;4.85;;
79790;SDS011;69278;52.220;5.172;2023-06-24T11:09:53;7.75;;;5.03;;
79790;SDS011;69278;52.220;5.172;2023-06-24T11:12:28;6.55;;;4.05;;
79790;SDS011;69278;52.220;5.172;2023-06-24T11:14:57;7.97;;;4.10;;
79790;SDS011;69278;52.220;5.172;2023-06-24T11:17:25;7.20;;;4.70;;
79790;SDS011;69278;52.220;5.172;2023-06-24T11:19:53;6.82;;;4.07;;
79790;SDS011;69278;52.220;5.172;2023-06-24T11:22:20;9.75;;;4.30;;
79790;SDS011;69278;52.220;5.172;2023-06-24T11:24:48;8.27;;;4.28;;
79790;SDS011;69278;52.220;5.172;2023-06-24T11:27:14;7.10;;;4.40;;
79790;SDS011;69278;52.220;5.172;2023-06-24T11:29:41;7.70;;;3.80;;
79790;SDS011;69278;52.220;5.172;2023-06-24T11:32:08;7.65;;;4.28;;
79790;SDS011;69278;52.220;5.172;2023-06-24T11:34:36;6.47;;;4.10;;
79790;SDS011;69278;52.220;5.172;2023-06-24T11:37:10;6.28;;;3.88;;
79790;SDS011;69278;52.220;5.172;2023-06-24T11:39:37;7.15;;;3.83;;
79790;SDS011;69278;52.220;5.172;2023-06-24T11:42:05;6.90;;;4.70;;
79790;SDS011;69278;52.220;5.172;2023-06-24T11:44:34;9.32;;;4.90;;
79790;SDS011;69278;52.220;5.172;2023-06-24T11:47:07;7.50;;;4.80;;
79790;SDS011;69278;52.220;5.172;2023-06-24T11:49:47;6.10;;;4.50;;
79790;SDS011;69278;52.220;5.172;2023-06-24T11:52:16;6.88;;;4.38;;
79790;SDS011;69278;52.220;5.172;2023-06-24T11:54:42;8.33;;;5.07;;
79790;SDS011;69278;52.220;5.172;2023-06-24T11:57:09;7.38;;;5.45;;
79790;SDS011;69278;52.220;5.172;2023-06-24T11:59:40;8.25;;;5.18;;
79790;SDS011;69278;52.220;5.172;2023-06-24T12:02:12;10.32;;;6.07;;
79790;SDS011;69278;52.220;5.172;2023-06-24T12:04:43;8.10;;;5.45;;
79790;SDS011;69278;52.220;5.172;2023-06-24T12:07:10;10.10;;;5.97;;
79790;SDS011;69278;52.220;5.172;2023-06-24T12:09:36;9.57;;;6.22;;
79790;SDS011;69278;52.220;5.172;2023-06-24T12:12:04;10.63;;;6.28;;
79790;SDS011;69278;52.220;5.172;2023-06-24T12:14:32;11.07;;;5.38;;
79790;SDS011;69278;52.220;5.172;2023-06-24T12:16:59;9.48;;;5.13;;
79790;SDS011;69278;52.220;5.172;2023-06-24T12:19:25;9.50;;;4.90;;
79790;SDS011;69278;52.220;5.172;2023-06-24T12:21:52;8.32;;;4.90;;
79790;SDS011;69278;52.220;5.172;2023-06-24T12:24:19;8.60;;;5.20;;
79790;SDS011;69278;52.220;5.172;2023-06-24T12:26:46;9.48;;;5.20;;
79790;SDS011;69278;52.220;5.172;2023-06-24T12:29:13;12.70;;;5.82;;
79790;SDS011;69278;52.220;5.172;2023-06-24T12:31:39;7.80;;;5.10;;
79790;SDS011;69278;52.220;5.172;2023-06-24T12:34:07;8.40;;;4.82;;
79790;SDS011;69278;52.220;5.172;2023-06-24T12:36:33;8.73;;;5.25;;
79790;SDS011;69278;52.220;5.172;2023-06-24T12:39:00;6.85;;;4.85;;
79790;SDS011;69278;52.220;5.172;2023-06-24T12:41:26;8.35;;;4.97;;
79790;SDS011;69278;52.220;5.172;2023-06-24T12:43:56;7.47;;;4.63;;
79790;SDS011;69278;52.220;5.172;2023-06-24T12:46:23;7.25;;;4.40;;
79790;SDS011;69278;52.220;5.172;2023-06-24T12:48:49;8.73;;;4.80;;
79790;SDS011;69278;52.220;5.172;2023-06-24T12:51:16;7.65;;;4.50;;
79790;SDS011;69278;52.220;5.172;2023-06-24T12:53:42;6.97;;;4.30;;
79790;SDS011;69278;52.220;5.172;2023-06-24T12:56:08;6.80;;;4.80;;
79790;SDS011;69278;52.220;5.172;2023-06-24T12:58:35;8.93;;;5.00;;
79790;SDS011;69278;52.220;5.172;2023-06-24T13:01:01;9.13;;;5.05;;
79790;SDS011;69278;52.220;5.172;2023-06-24T13:03:28;8.60;;;4.57;;
79790;SDS011;69278;52.220;5.172;2023-06-24T13:05:54;7.70;;;4.40;;
79790;SDS011;69278;52.220;5.172;2023-06-24T13:08:21;8.70;;;4.80;;
79790;SDS011;69278;52.220;5.172;2023-06-24T13:10:47;7.22;;;5.05;;
79790;SDS011;69278;52.220;5.172;2023-06-24T13:13:14;10.65;;;5.25;;
79790;SDS011;69278;52.220;5.172;2023-06-24T13:15:40;7.93;;;5.13;;
79790;SDS011;69278;52.220;5.172;2023-06-24T13:18:07;7.63;;;5.25;;
79790;SDS011;69278;52.220;5.172;2023-06-24T13:20:33;8.47;;;5.40;;
79790;SDS011;69278;52.220;5.172;2023-06-24T13:23:01;9.85;;;5.10;;
79790;SDS011;69278;52.220;5.172;2023-06-24T13:25:28;9.55;;;5.50;;
79790;SDS011;69278;52.220;5.172;2023-06-24T13:27:54;8.90;;;5.28;;
79790;SDS011;69278;52.220;5.172;2023-06-24T13:30:21;8.48;;;5.22;;
79790;SDS011;69278;52.220;5.172;2023-06-24T13:32:47;7.00;;;5.10;;
79790;SDS011;69278;52.220;5.172;2023-06-24T13:35:15;7.70;;;5.43;;
79790;SDS011;69278;52.220;5.172;2023-06-24T13:37:42;8.15;;;5.28;;
79790;SDS011;69278;52.220;5.172;2023-06-24T13:40:09;7.15;;;5.10;;
79790;SDS011;69278;52.220;5.172;2023-06-24T13:42:37;7.05;;;4.97;;
79790;SDS011;69278;52.220;5.172;2023-06-24T13:45:03;9.57;;;6.00;;
79790;SDS011;69278;52.220;5.172;2023-06-24T13:47:30;8.38;;;5.30;;
79790;SDS011;69278;52.220;5.172;2023-06-24T13:49:57;7.70;;;5.15;;
79790;SDS011;69278;52.220;5.172;2023-06-24T13:52:25;7.40;;;5.00;;
79790;SDS011;69278;52.220;5.172;2023-06-24T13:54:53;8.07;;;4.78;;
79790;SDS011;69278;52.220;5.172;2023-06-24T13:57:19;6.37;;;4.70;;
79790;SDS011;69278;52.220;5.172;2023-06-24T13:59:46;7.32;;;5.00;;
79790;SDS011;69278;52.220;5.172;2023-06-24T14:02:13;8.98;;;5.20;;
79790;SDS011;69278;52.220;5.172;2023-06-24T14:04:40;7.82;;;4.80;;
79790;SDS011;69278;52.220;5.172;2023-06-24T14:07:06;8.63;;;4.93;;
79790;SDS011;69278;52.220;5.172;2023-06-24T14:09:33;6.67;;;4.00;;
79790;SDS011;69278;52.220;5.172;2023-06-24T14:12:00;6.97;;;4.45;;
79790;SDS011;69278;52.220;5.172;2023-06-24T14:14:27;7.15;;;4.55;;
79790;SDS011;69278;52.220;5.172;2023-06-24T14:16:54;7.53;;;4.70;;
79790;SDS011;69278;52.220;5.172;2023-06-24T14:19:20;7.03;;;4.50;;
79790;SDS011;69278;52.220;5.172;2023-06-24T14:21:50;5.77;;;4.30;;
79790;SDS011;69278;52.220;5.172;2023-06-24T14:24:17;8.75;;;4.70;;
79790;SDS011;69278;52.220;5.172;2023-06-24T14:26:43;8.43;;;4.80;;
79790;SDS011;69278;52.220;5.172;2023-06-24T14:29:10;8.30;;;4.68;;
79790;SDS011;69278;52.220;5.172;2023-06-24T14:31:37;8.57;;;5.00;;
79790;SDS011;69278;52.220;5.172;2023-06-24T14:34:03;6.37;;;4.30;;
79790;SDS011;69278;52.220;5.172;2023-06-24T14:36:30;6.95;;;4.93;;
79790;SDS011;69278;52.220;5.172;2023-06-24T14:38:56;8.68;;;5.38;;
79790;SDS011;69278;52.220;5.172;2023-06-24T14:41:23;7.38;;;4.90;;
79790;SDS011;69278;52.220;5.172;2023-06-24T14:43:50;7.70;;;5.13;;
79790;SDS011;69278;52.220;5.172;2023-06-24T14:46:17;7.20;;;5.50;;
79790;SDS011;69278;52.220;5.172;2023-06-24T14:48:43;6.55;;;4.70;;
79790;SDS011;69278;52.220;5.172;2023-06-24T14:51:10;7.63;;;4.82;;
79790;SDS011;69278;52.220;5.172;2023-06-24T14:53:36;5.43;;;4.40;;
79790;SDS011;69278;52.220;5.172;2023-06-24T14:56:03;8.07;;;4.70;;
79790;SDS011;69278;52.220;5.172;2023-06-24T14:58:30;7.40;;;4.90;;
79790;SDS011;69278;52.220;5.172;2023-06-24T15:00:56;9.82;;;5.40;;
79790;SDS011;69278;52.220;5.172;2023-06-24T15:03:23;8.88;;;5.20;;
79790;SDS011;69278;52.220;5.172;2023-06-24T15:05:49;8.55;;;5.22;;
79790;SDS011;69278;52.220;5.172;2023-06-24T15:08:16;9.05;;;5.70;;
79790;SDS011;69278;52.220;5.172;2023-06-24T15:10:42;8.83;;;5.47;;